East Pineville, Kentucky
Current Conditions -  °F | °C
As of 5:35 AM on Wednesday 22 Oct 2014 (Local Time) from K1A6 Reporting Station
Broken Clouds Broken Clouds  
Wind Chill: 45°   Ceiling: 4300
Heat Index: 47°   Visibility: 10mi
Dew Point: 38°   Wind: 6mph
Humidity: 70%   Direction: 20°NNE
Pressure: 30.16"   Gusts: NA
Location:  36.7417°N, 83.6911°W
Report Text: K1A6 220935Z AUTO 02005KT 10SM BKN043 09/03 A3016 RMK AO2 T00850034
Loading
Personal Weather Stations






























Interactive Weather Map
Tropical Storm Tracking
New forecast layout! Learn more

10-Day Weather Forecast

Advertisements
Track Severe Weather on mobile